sensor_id;sensor_type;location;lat;lon;timestamp;P1;durP1;ratioP1;P2;durP2;ratioP2
10825;SDS011;5466;55.898;14.094;2023-08-06T00:00:33;10.73;;;4.70;;
10825;SDS011;5466;55.898;14.094;2023-08-06T00:02:34;7.03;;;5.22;;
10825;SDS011;5466;55.898;14.094;2023-08-06T00:04:34;8.02;;;5.22;;
10825;SDS011;5466;55.898;14.094;2023-08-06T00:06:35;6.28;;;4.75;;
10825;SDS011;5466;55.898;14.094;2023-08-06T00:08:35;6.40;;;4.88;;
10825;SDS011;5466;55.898;14.094;2023-08-06T00:10:36;8.02;;;5.45;;
10825;SDS011;5466;55.898;14.094;2023-08-06T00:12:37;5.40;;;4.53;;
10825;SDS011;5466;55.898;14.094;2023-08-06T00:14:37;6.55;;;5.18;;
10825;SDS011;5466;55.898;14.094;2023-08-06T00:16:38;11.27;;;5.72;;
10825;SDS011;5466;55.898;14.094;2023-08-06T00:18:39;7.88;;;5.47;;
10825;SDS011;5466;55.898;14.094;2023-08-06T00:20:40;8.93;;;5.78;;
10825;SDS011;5466;55.898;14.094;2023-08-06T00:22:43;7.93;;;5.10;;
10825;SDS011;5466;55.898;14.094;2023-08-06T00:24:44;8.13;;;5.03;;
10825;SDS011;5466;55.898;14.094;2023-08-06T00:26:44;10.57;;;5.15;;
10825;SDS011;5466;55.898;14.094;2023-08-06T00:28:45;10.15;;;5.63;;
10825;SDS011;5466;55.898;14.094;2023-08-06T00:30:45;7.38;;;5.57;;
10825;SDS011;5466;55.898;14.094;2023-08-06T00:32:46;12.10;;;5.90;;
10825;SDS011;5466;55.898;14.094;2023-08-06T00:34:47;10.07;;;5.25;;
10825;SDS011;5466;55.898;14.094;2023-08-06T00:36:49;8.63;;;5.43;;
10825;SDS011;5466;55.898;14.094;2023-08-06T00:38:50;7.88;;;5.10;;
10825;SDS011;5466;55.898;14.094;2023-08-06T00:40:50;8.90;;;5.50;;
10825;SDS011;5466;55.898;14.094;2023-08-06T00:42:51;8.48;;;5.35;;
10825;SDS011;5466;55.898;14.094;2023-08-06T00:44:51;8.18;;;5.03;;
10825;SDS011;5466;55.898;14.094;2023-08-06T00:46:52;8.23;;;5.50;;
10825;SDS011;5466;55.898;14.094;2023-08-06T00:48:53;7.75;;;5.28;;
10825;SDS011;5466;55.898;14.094;2023-08-06T00:50:54;12.07;;;5.53;;
10825;SDS011;5466;55.898;14.094;2023-08-06T00:52:55;7.82;;;5.70;;
10825;SDS011;5466;55.898;14.094;2023-08-06T00:54:56;6.68;;;5.22;;
10825;SDS011;5466;55.898;14.094;2023-08-06T00:56:57;8.20;;;4.95;;
10825;SDS011;5466;55.898;14.094;2023-08-06T00:59:00;7.88;;;5.25;;
10825;SDS011;5466;55.898;14.094;2023-08-06T01:01:01;6.20;;;5.35;;
10825;SDS011;5466;55.898;14.094;2023-08-06T01:03:02;7.05;;;5.65;;
10825;SDS011;5466;55.898;14.094;2023-08-06T01:05:03;6.22;;;5.60;;
10825;SDS011;5466;55.898;14.094;2023-08-06T01:07:08;7.10;;;5.53;;
10825;SDS011;5466;55.898;14.094;2023-08-06T01:14:28;8.80;;;5.85;;
10825;SDS011;5466;55.898;14.094;2023-08-06T01:16:37;8.32;;;5.75;;
10825;SDS011;5466;55.898;14.094;2023-08-06T01:18:39;9.90;;;5.65;;
10825;SDS011;5466;55.898;14.094;2023-08-06T01:20:41;10.88;;;5.40;;
10825;SDS011;5466;55.898;14.094;2023-08-06T01:22:42;15.82;;;7.55;;
10825;SDS011;5466;55.898;14.094;2023-08-06T01:24:44;10.88;;;6.60;;
10825;SDS011;5466;55.898;14.094;2023-08-06T01:26:51;9.60;;;5.82;;
10825;SDS011;5466;55.898;14.094;2023-08-06T01:29:15;9.13;;;5.30;;
10825;SDS011;5466;55.898;14.094;2023-08-06T01:31:31;8.90;;;5.57;;
10825;SDS011;5466;55.898;14.094;2023-08-06T01:33:33;7.93;;;5.85;;
10825;SDS011;5466;55.898;14.094;2023-08-06T01:35:35;8.93;;;5.53;;
10825;SDS011;5466;55.898;14.094;2023-08-06T01:37:38;7.28;;;5.07;;
10825;SDS011;5466;55.898;14.094;2023-08-06T01:39:39;9.82;;;5.47;;
10825;SDS011;5466;55.898;14.094;2023-08-06T01:41:42;6.57;;;5.47;;
10825;SDS011;5466;55.898;14.094;2023-08-06T01:43:43;6.18;;;4.82;;
10825;SDS011;5466;55.898;14.094;2023-08-06T01:45:44;9.32;;;5.20;;
10825;SDS011;5466;55.898;14.094;2023-08-06T01:47:44;7.93;;;5.40;;
10825;SDS011;5466;55.898;14.094;2023-08-06T01:49:45;6.85;;;5.40;;
10825;SDS011;5466;55.898;14.094;2023-08-06T01:51:45;8.32;;;5.55;;
10825;SDS011;5466;55.898;14.094;2023-08-06T01:53:46;9.73;;;6.22;;
10825;SDS011;5466;55.898;14.094;2023-08-06T01:55:50;11.52;;;6.28;;
10825;SDS011;5466;55.898;14.094;2023-08-06T01:57:50;10.35;;;5.82;;
10825;SDS011;5466;55.898;14.094;2023-08-06T01:59:51;7.30;;;5.78;;
10825;SDS011;5466;55.898;14.094;2023-08-06T02:01:51;10.20;;;5.68;;
10825;SDS011;5466;55.898;14.094;2023-08-06T02:03:52;11.88;;;5.55;;
10825;SDS011;5466;55.898;14.094;2023-08-06T02:05:53;10.93;;;5.90;;
10825;SDS011;5466;55.898;14.094;2023-08-06T02:07:53;9.18;;;5.78;;
10825;SDS011;5466;55.898;14.094;2023-08-06T02:09:54;15.27;;;6.00;;
10825;SDS011;5466;55.898;14.094;2023-08-06T02:11:55;7.60;;;6.15;;
10825;SDS011;5466;55.898;14.094;2023-08-06T02:13:56;8.27;;;5.45;;
10825;SDS011;5466;55.898;14.094;2023-08-06T02:15:56;9.80;;;6.22;;
10825;SDS011;5466;55.898;14.094;2023-08-06T02:17:57;7.97;;;6.22;;
10825;SDS011;5466;55.898;14.094;2023-08-06T02:19:57;7.80;;;6.13;;
10825;SDS011;5466;55.898;14.094;2023-08-06T02:21:58;10.18;;;6.18;;
10825;SDS011;5466;55.898;14.094;2023-08-06T02:23:59;9.50;;;5.80;;
10825;SDS011;5466;55.898;14.094;2023-08-06T02:26:03;8.45;;;6.13;;
10825;SDS011;5466;55.898;14.094;2023-08-06T02:28:04;6.45;;;5.45;;
10825;SDS011;5466;55.898;14.094;2023-08-06T02:30:05;13.25;;;6.18;;
10825;SDS011;5466;55.898;14.094;2023-08-06T02:32:06;9.80;;;5.55;;
10825;SDS011;5466;55.898;14.094;2023-08-06T02:34:07;6.65;;;5.28;;
10825;SDS011;5466;55.898;14.094;2023-08-06T02:36:08;8.50;;;5.40;;
10825;SDS011;5466;55.898;14.094;2023-08-06T02:38:08;6.68;;;5.90;;
10825;SDS011;5466;55.898;14.094;2023-08-06T02:40:09;8.90;;;5.80;;
10825;SDS011;5466;55.898;14.094;2023-08-06T02:42:10;9.75;;;6.03;;
10825;SDS011;5466;55.898;14.094;2023-08-06T02:44:10;10.82;;;6.35;;
10825;SDS011;5466;55.898;14.094;2023-08-06T02:46:11;9.82;;;6.68;;
10825;SDS011;5466;55.898;14.094;2023-08-06T02:48:12;11.07;;;6.20;;
10825;SDS011;5466;55.898;14.094;2023-08-06T02:50:12;11.98;;;5.88;;
10825;SDS011;5466;55.898;14.094;2023-08-06T02:52:13;8.95;;;6.20;;
10825;SDS011;5466;55.898;14.094;2023-08-06T02:54:13;10.57;;;6.75;;
10825;SDS011;5466;55.898;14.094;2023-08-06T02:56:14;14.40;;;6.90;;
10825;SDS011;5466;55.898;14.094;2023-08-06T02:58:15;16.48;;;7.53;;
10825;SDS011;5466;55.898;14.094;2023-08-06T03:00:16;12.52;;;7.50;;
10825;SDS011;5466;55.898;14.094;2023-08-06T03:02:16;11.95;;;7.32;;
10825;SDS011;5466;55.898;14.094;2023-08-06T03:04:17;12.85;;;6.45;;
10825;SDS011;5466;55.898;14.094;2023-08-06T03:06:18;11.43;;;7.22;;
10825;SDS011;5466;55.898;14.094;2023-08-06T03:08:18;13.32;;;7.15;;
10825;SDS011;5466;55.898;14.094;2023-08-06T03:10:22;15.75;;;7.82;;
10825;SDS011;5466;55.898;14.094;2023-08-06T03:12:23;14.00;;;7.20;;
10825;SDS011;5466;55.898;14.094;2023-08-06T03:14:23;13.75;;;7.53;;
10825;SDS011;5466;55.898;14.094;2023-08-06T03:16:24;12.15;;;7.45;;
10825;SDS011;5466;55.898;14.094;2023-08-06T03:18:24;13.50;;;7.35;;
10825;SDS011;5466;55.898;14.094;2023-08-06T03:20:28;11.93;;;6.78;;
10825;SDS011;5466;55.898;14.094;2023-08-06T03:22:29;13.27;;;6.82;;
10825;SDS011;5466;55.898;14.094;2023-08-06T03:24:29;8.55;;;6.25;;
10825;SDS011;5466;55.898;14.094;2023-08-06T03:26:30;13.43;;;6.57;;
10825;SDS011;5466;55.898;14.094;2023-08-06T03:28:30;10.20;;;7.10;;
10825;SDS011;5466;55.898;14.094;2023-08-06T03:30:31;8.10;;;6.03;;
10825;SDS011;5466;55.898;14.094;2023-08-06T03:32:32;10.60;;;6.28;;
10825;SDS011;5466;55.898;14.094;2023-08-06T03:34:32;10.07;;;6.00;;
10825;SDS011;5466;55.898;14.094;2023-08-06T03:36:33;6.57;;;5.60;;
10825;SDS011;5466;55.898;14.094;2023-08-06T03:38:33;10.02;;;5.80;;
10825;SDS011;5466;55.898;14.094;2023-08-06T03:40:37;6.22;;;5.45;;
10825;SDS011;5466;55.898;14.094;2023-08-06T03:42:38;11.43;;;5.63;;
10825;SDS011;5466;55.898;14.094;2023-08-06T03:44:38;8.05;;;5.97;;
10825;SDS011;5466;55.898;14.094;2023-08-06T03:46:39;9.15;;;6.50;;
10825;SDS011;5466;55.898;14.094;2023-08-06T03:48:40;8.50;;;6.22;;
10825;SDS011;5466;55.898;14.094;2023-08-06T03:50:40;8.95;;;5.47;;
10825;SDS011;5466;55.898;14.094;2023-08-06T03:52:41;7.47;;;5.80;;
10825;SDS011;5466;55.898;14.094;2023-08-06T03:54:41;12.43;;;6.05;;
10825;SDS011;5466;55.898;14.094;2023-08-06T03:56:43;10.45;;;5.63;;
10825;SDS011;5466;55.898;14.094;2023-08-06T03:58:43;7.28;;;5.43;;
10825;SDS011;5466;55.898;14.094;2023-08-06T04:00:44;6.47;;;5.70;;
10825;SDS011;5466;55.898;14.094;2023-08-06T04:02:44;9.45;;;5.93;;
10825;SDS011;5466;55.898;14.094;2023-08-06T04:04:45;7.70;;;5.57;;
10825;SDS011;5466;55.898;14.094;2023-08-06T04:06:46;6.95;;;5.43;;
10825;SDS011;5466;55.898;14.094;2023-08-06T04:08:46;6.82;;;5.80;;
10825;SDS011;5466;55.898;14.094;2023-08-06T04:10:53;5.97;;;5.22;;
10825;SDS011;5466;55.898;14.094;2023-08-06T04:12:53;8.52;;;5.38;;
10825;SDS011;5466;55.898;14.094;2023-08-06T04:14:54;8.02;;;5.45;;
10825;SDS011;5466;55.898;14.094;2023-08-06T04:16:58;10.88;;;5.47;;
10825;SDS011;5466;55.898;14.094;2023-08-06T04:18:58;7.25;;;5.82;;
10825;SDS011;5466;55.898;14.094;2023-08-06T04:20:59;6.72;;;5.05;;
10825;SDS011;5466;55.898;14.094;2023-08-06T04:23:05;6.78;;;5.47;;
10825;SDS011;5466;55.898;14.094;2023-08-06T04:25:06;8.00;;;5.50;;
10825;SDS011;5466;55.898;14.094;2023-08-06T04:27:07;6.75;;;5.50;;
10825;SDS011;5466;55.898;14.094;2023-08-06T04:29:09;8.48;;;5.50;;
10825;SDS011;5466;55.898;14.094;2023-08-06T04:31:09;7.03;;;6.03;;
10825;SDS011;5466;55.898;14.094;2023-08-06T04:33:10;7.20;;;5.22;;
10825;SDS011;5466;55.898;14.094;2023-08-06T04:35:11;13.30;;;5.32;;
10825;SDS011;5466;55.898;14.094;2023-08-06T04:37:11;5.90;;;5.25;;
10825;SDS011;5466;55.898;14.094;2023-08-06T04:39:12;8.45;;;5.10;;
10825;SDS011;5466;55.898;14.094;2023-08-06T04:41:12;6.25;;;5.13;;
10825;SDS011;5466;55.898;14.094;2023-08-06T04:43:13;5.70;;;5.10;;
10825;SDS011;5466;55.898;14.094;2023-08-06T04:45:14;7.20;;;5.07;;
10825;SDS011;5466;55.898;14.094;2023-08-06T04:47:14;8.10;;;5.10;;
10825;SDS011;5466;55.898;14.094;2023-08-06T04:49:15;5.43;;;4.93;;
10825;SDS011;5466;55.898;14.094;2023-08-06T04:51:16;16.20;;;4.57;;
10825;SDS011;5466;55.898;14.094;2023-08-06T04:53:16;7.38;;;4.55;;
10825;SDS011;5466;55.898;14.094;2023-08-06T04:55:17;9.07;;;4.85;;
10825;SDS011;5466;55.898;14.094;2023-08-06T04:57:17;6.57;;;5.45;;
10825;SDS011;5466;55.898;14.094;2023-08-06T04:59:18;6.57;;;4.65;;
10825;SDS011;5466;55.898;14.094;2023-08-06T05:01:19;6.40;;;4.88;;
10825;SDS011;5466;55.898;14.094;2023-08-06T05:03:19;5.72;;;4.90;;
10825;SDS011;5466;55.898;14.094;2023-08-06T05:05:21;5.20;;;4.60;;
10825;SDS011;5466;55.898;14.094;2023-08-06T05:07:21;6.75;;;4.75;;
10825;SDS011;5466;55.898;14.094;2023-08-06T05:09:22;5.80;;;4.25;;
10825;SDS011;5466;55.898;14.094;2023-08-06T05:11:24;7.90;;;4.20;;
10825;SDS011;5466;55.898;14.094;2023-08-06T05:13:24;6.68;;;4.03;;
10825;SDS011;5466;55.898;14.094;2023-08-06T05:15:25;4.70;;;3.97;;
10825;SDS011;5466;55.898;14.094;2023-08-06T05:17:26;4.72;;;4.05;;
10825;SDS011;5466;55.898;14.094;2023-08-06T05:19:27;6.03;;;4.40;;
10825;SDS011;5466;55.898;14.094;2023-08-06T05:21:27;7.88;;;3.90;;
10825;SDS011;5466;55.898;14.094;2023-08-06T05:23:28;6.30;;;4.18;;
10825;SDS011;5466;55.898;14.094;2023-08-06T05:25:29;4.60;;;3.80;;
10825;SDS011;5466;55.898;14.094;2023-08-06T05:27:30;5.47;;;3.72;;
10825;SDS011;5466;55.898;14.094;2023-08-06T05:29:31;6.22;;;3.92;;
10825;SDS011;5466;55.898;14.094;2023-08-06T05:31:31;6.07;;;3.67;;
10825;SDS011;5466;55.898;14.094;2023-08-06T05:33:32;4.97;;;4.00;;
10825;SDS011;5466;55.898;14.094;2023-08-06T05:35:32;6.38;;;3.60;;
10825;SDS011;5466;55.898;14.094;2023-08-06T05:37:33;6.38;;;3.55;;
10825;SDS011;5466;55.898;14.094;2023-08-06T05:39:34;3.90;;;3.50;;
10825;SDS011;5466;55.898;14.094;2023-08-06T05:41:34;6.38;;;4.05;;
10825;SDS011;5466;55.898;14.094;2023-08-06T05:43:35;4.88;;;4.03;;
10825;SDS011;5466;55.898;14.094;2023-08-06T05:45:35;5.15;;;3.92;;
10825;SDS011;5466;55.898;14.094;2023-08-06T05:47:36;5.18;;;3.95;;
10825;SDS011;5466;55.898;14.094;2023-08-06T05:49:36;4.25;;;3.60;;
10825;SDS011;5466;55.898;14.094;2023-08-06T05:51:37;6.13;;;4.00;;
10825;SDS011;5466;55.898;14.094;2023-08-06T05:53:38;4.55;;;3.53;;
10825;SDS011;5466;55.898;14.094;2023-08-06T05:55:38;6.65;;;4.03;;
10825;SDS011;5466;55.898;14.094;2023-08-06T05:57:39;4.80;;;3.75;;
10825;SDS011;5466;55.898;14.094;2023-08-06T05:59:40;5.47;;;3.50;;
10825;SDS011;5466;55.898;14.094;2023-08-06T06:01:41;6.10;;;3.85;;
10825;SDS011;5466;55.898;14.094;2023-08-06T06:03:41;3.88;;;3.45;;
10825;SDS011;5466;55.898;14.094;2023-08-06T06:05:42;8.75;;;3.80;;
10825;SDS011;5466;55.898;14.094;2023-08-06T06:07:42;4.20;;;3.20;;
10825;SDS011;5466;55.898;14.094;2023-08-06T06:09:43;6.45;;;3.50;;
10825;SDS011;5466;55.898;14.094;2023-08-06T06:11:44;6.93;;;3.50;;
10825;SDS011;5466;55.898;14.094;2023-08-06T06:13:44;6.38;;;3.80;;
10825;SDS011;5466;55.898;14.094;2023-08-06T06:15:46;3.60;;;3.25;;
10825;SDS011;5466;55.898;14.094;2023-08-06T06:17:47;7.07;;;3.70;;
10825;SDS011;5466;55.898;14.094;2023-08-06T06:19:48;6.35;;;3.63;;
10825;SDS011;5466;55.898;14.094;2023-08-06T06:21:48;4.13;;;3.75;;
10825;SDS011;5466;55.898;14.094;2023-08-06T06:23:49;4.65;;;3.50;;
10825;SDS011;5466;55.898;14.094;2023-08-06T06:25:51;3.95;;;3.08;;
10825;SDS011;5466;55.898;14.094;2023-08-06T06:27:51;4.32;;;3.50;;
10825;SDS011;5466;55.898;14.094;2023-08-06T06:29:52;7.20;;;3.40;;
10825;SDS011;5466;55.898;14.094;2023-08-06T06:31:54;4.38;;;3.45;;
10825;SDS011;5466;55.898;14.094;2023-08-06T06:33:55;3.50;;;3.03;;
10825;SDS011;5466;55.898;14.094;2023-08-06T06:35:55;4.97;;;3.63;;
10825;SDS011;5466;55.898;14.094;2023-08-06T06:37:56;3.55;;;3.15;;
10825;SDS011;5466;55.898;14.094;2023-08-06T06:39:56;3.33;;;2.97;;
10825;SDS011;5466;55.898;14.094;2023-08-06T06:41:57;5.60;;;3.55;;
10825;SDS011;5466;55.898;14.094;2023-08-06T06:43:58;5.78;;;3.50;;
10825;SDS011;5466;55.898;14.094;2023-08-06T06:45:59;4.00;;;3.30;;
10825;SDS011;5466;55.898;14.094;2023-08-06T06:48:00;3.72;;;3.35;;
10825;SDS011;5466;55.898;14.094;2023-08-06T06:50:01;4.43;;;3.17;;
10825;SDS011;5466;55.898;14.094;2023-08-06T06:52:02;3.97;;;3.03;;
10825;SDS011;5466;55.898;14.094;2023-08-06T06:54:02;3.58;;;3.00;;
10825;SDS011;5466;55.898;14.094;2023-08-06T06:56:03;4.30;;;3.55;;
10825;SDS011;5466;55.898;14.094;2023-08-06T06:58:05;4.68;;;2.90;;
10825;SDS011;5466;55.898;14.094;2023-08-06T07:00:05;3.08;;;2.72;;
10825;SDS011;5466;55.898;14.094;2023-08-06T07:02:06;3.90;;;3.03;;
10825;SDS011;5466;55.898;14.094;2023-08-06T07:04:07;4.07;;;3.55;;
10825;SDS011;5466;55.898;14.094;2023-08-06T07:06:08;7.32;;;3.55;;
10825;SDS011;5466;55.898;14.094;2023-08-06T07:08:08;3.63;;;3.30;;
10825;SDS011;5466;55.898;14.094;2023-08-06T07:10:09;4.85;;;3.42;;
10825;SDS011;5466;55.898;14.094;2023-08-06T07:12:10;3.50;;;3.20;;
10825;SDS011;5466;55.898;14.094;2023-08-06T07:14:10;4.72;;;3.17;;
10825;SDS011;5466;55.898;14.094;2023-08-06T07:16:11;4.60;;;3.13;;
10825;SDS011;5466;55.898;14.094;2023-08-06T07:18:12;7.00;;;3.67;;
10825;SDS011;5466;55.898;14.094;2023-08-06T07:20:12;5.90;;;3.75;;
10825;SDS011;5466;55.898;14.094;2023-08-06T07:22:13;4.38;;;3.25;;
10825;SDS011;5466;55.898;14.094;2023-08-06T07:24:14;5.45;;;3.53;;
10825;SDS011;5466;55.898;14.094;2023-08-06T07:26:14;5.05;;;3.45;;
10825;SDS011;5466;55.898;14.094;2023-08-06T07:28:16;5.20;;;3.58;;
10825;SDS011;5466;55.898;14.094;2023-08-06T07:30:16;4.40;;;3.63;;
10825;SDS011;5466;55.898;14.094;2023-08-06T07:32:17;3.85;;;2.80;;
10825;SDS011;5466;55.898;14.094;2023-08-06T07:34:18;3.72;;;3.42;;
10825;SDS011;5466;55.898;14.094;2023-08-06T07:36:18;6.40;;;3.40;;
10825;SDS011;5466;55.898;14.094;2023-08-06T07:38:19;4.85;;;3.55;;
10825;SDS011;5466;55.898;14.094;2023-08-06T07:40:19;7.10;;;3.70;;
10825;SDS011;5466;55.898;14.094;2023-08-06T07:42:20;4.50;;;3.72;;
10825;SDS011;5466;55.898;14.094;2023-08-06T07:44:21;4.93;;;3.65;;
10825;SDS011;5466;55.898;14.094;2023-08-06T07:46:22;5.35;;;3.55;;
10825;SDS011;5466;55.898;14.094;2023-08-06T07:48:22;7.78;;;3.78;;
10825;SDS011;5466;55.898;14.094;2023-08-06T07:50:23;5.40;;;3.80;;
10825;SDS011;5466;55.898;14.094;2023-08-06T07:52:23;6.85;;;3.88;;
10825;SDS011;5466;55.898;14.094;2023-08-06T07:54:24;4.85;;;3.50;;
10825;SDS011;5466;55.898;14.094;2023-08-06T07:56:24;6.07;;;3.88;;
10825;SDS011;5466;55.898;14.094;2023-08-06T07:58:25;6.60;;;3.70;;
10825;SDS011;5466;55.898;14.094;2023-08-06T08:00:26;6.32;;;4.00;;
10825;SDS011;5466;55.898;14.094;2023-08-06T08:02:27;5.63;;;3.75;;
10825;SDS011;5466;55.898;14.094;2023-08-06T08:04:27;7.18;;;3.90;;
10825;SDS011;5466;55.898;14.094;2023-08-06T08:06:28;6.35;;;3.97;;
10825;SDS011;5466;55.898;14.094;2023-08-06T08:08:28;6.35;;;4.18;;
10825;SDS011;5466;55.898;14.094;2023-08-06T08:10:29;9.40;;;4.30;;
10825;SDS011;5466;55.898;14.094;2023-08-06T08:12:30;5.00;;;3.45;;
10825;SDS011;5466;55.898;14.094;2023-08-06T08:14:31;6.30;;;3.67;;
10825;SDS011;5466;55.898;14.094;2023-08-06T08:16:38;5.18;;;3.47;;
10825;SDS011;5466;55.898;14.094;2023-08-06T08:18:38;8.38;;;3.50;;
10825;SDS011;5466;55.898;14.094;2023-08-06T08:20:39;7.70;;;3.85;;
10825;SDS011;5466;55.898;14.094;2023-08-06T08:22:39;6.80;;;3.88;;
10825;SDS011;5466;55.898;14.094;2023-08-06T08:24:40;7.53;;;4.38;;
10825;SDS011;5466;55.898;14.094;2023-08-06T08:26:40;5.53;;;3.95;;
10825;SDS011;5466;55.898;14.094;2023-08-06T08:28:41;6.70;;;4.03;;
10825;SDS011;5466;55.898;14.094;2023-08-06T08:30:42;5.45;;;3.65;;
10825;SDS011;5466;55.898;14.094;2023-08-06T08:32:43;7.18;;;3.88;;
10825;SDS011;5466;55.898;14.094;2023-08-06T08:34:43;5.43;;;3.63;;
10825;SDS011;5466;55.898;14.094;2023-08-06T08:36:44;5.18;;;3.58;;
10825;SDS011;5466;55.898;14.094;2023-08-06T08:38:47;5.82;;;3.72;;
10825;SDS011;5466;55.898;14.094;2023-08-06T08:40:50;9.45;;;3.45;;
10825;SDS011;5466;55.898;14.094;2023-08-06T08:42:53;7.35;;;3.40;;
10825;SDS011;5466;55.898;14.094;2023-08-06T08:44:55;6.05;;;3.50;;
10825;SDS011;5466;55.898;14.094;2023-08-06T08:46:57;6.57;;;3.55;;
10825;SDS011;5466;55.898;14.094;2023-08-06T08:48:58;6.60;;;4.38;;
10825;SDS011;5466;55.898;14.094;2023-08-06T08:50:59;6.20;;;3.80;;
10825;SDS011;5466;55.898;14.094;2023-08-06T08:53:00;7.97;;;3.78;;
10825;SDS011;5466;55.898;14.094;2023-08-06T08:55:02;6.45;;;3.90;;
10825;SDS011;5466;55.898;14.094;2023-08-06T08:57:02;5.50;;;3.60;;
10825;SDS011;5466;55.898;14.094;2023-08-06T08:59:03;6.65;;;3.78;;
10825;SDS011;5466;55.898;14.094;2023-08-06T09:01:04;4.75;;;3.60;;
10825;SDS011;5466;55.898;14.094;2023-08-06T09:03:06;6.85;;;4.05;;
10825;SDS011;5466;55.898;14.094;2023-08-06T09:05:07;5.55;;;4.22;;
10825;SDS011;5466;55.898;14.094;2023-08-06T09:07:10;7.43;;;4.03;;
10825;SDS011;5466;55.898;14.094;2023-08-06T09:09:13;5.05;;;3.67;;
10825;SDS011;5466;55.898;14.094;2023-08-06T09:11:26;7.35;;;3.92;;
10825;SDS011;5466;55.898;14.094;2023-08-06T09:13:27;8.80;;;4.13;;
10825;SDS011;5466;55.898;14.094;2023-08-06T09:15:28;9.93;;;4.70;;
10825;SDS011;5466;55.898;14.094;2023-08-06T09:17:29;5.43;;;3.90;;
10825;SDS011;5466;55.898;14.094;2023-08-06T09:19:30;4.97;;;4.13;;
10825;SDS011;5466;55.898;14.094;2023-08-06T09:21:30;4.63;;;3.72;;
10825;SDS011;5466;55.898;14.094;2023-08-06T09:23:31;10.30;;;4.38;;
10825;SDS011;5466;55.898;14.094;2023-08-06T09:25:33;8.30;;;4.00;;
10825;SDS011;5466;55.898;14.094;2023-08-06T09:27:33;8.40;;;4.63;;
10825;SDS011;5466;55.898;14.094;2023-08-06T09:29:34;7.85;;;4.15;;
10825;SDS011;5466;55.898;14.094;2023-08-06T09:33:45;7.75;;;4.38;;
10825;SDS011;5466;55.898;14.094;2023-08-06T09:35:48;6.82;;;4.22;;
10825;SDS011;5466;55.898;14.094;2023-08-06T09:37:52;5.63;;;4.22;;
10825;SDS011;5466;55.898;14.094;2023-08-06T09:39:52;7.68;;;5.03;;
10825;SDS011;5466;55.898;14.094;2023-08-06T09:41:57;12.32;;;4.80;;
10825;SDS011;5466;55.898;14.094;2023-08-06T09:43:59;7.80;;;4.50;;
10825;SDS011;5466;55.898;14.094;2023-08-06T09:45:59;5.85;;;4.50;;
10825;SDS011;5466;55.898;14.094;2023-08-06T09:48:01;6.25;;;4.75;;
10825;SDS011;5466;55.898;14.094;2023-08-06T09:50:04;5.68;;;4.55;;
10825;SDS011;5466;55.898;14.094;2023-08-06T09:52:10;7.45;;;4.65;;
10825;SDS011;5466;55.898;14.094;2023-08-06T09:54:12;8.63;;;4.80;;
10825;SDS011;5466;55.898;14.094;2023-08-06T09:56:15;9.45;;;4.68;;
10825;SDS011;5466;55.898;14.094;2023-08-06T09:58:17;7.57;;;4.85;;
10825;SDS011;5466;55.898;14.094;2023-08-06T10:00:20;9.63;;;4.90;;
10825;SDS011;5466;55.898;14.094;2023-08-06T10:02:20;6.57;;;4.47;;
10825;SDS011;5466;55.898;14.094;2023-08-06T10:04:26;6.75;;;4.10;;
10825;SDS011;5466;55.898;14.094;2023-08-06T10:06:29;8.32;;;4.13;;
10825;SDS011;5466;55.898;14.094;2023-08-06T10:08:30;4.88;;;4.35;;
10825;SDS011;5466;55.898;14.094;2023-08-06T10:10:30;6.88;;;4.78;;
10825;SDS011;5466;55.898;14.094;2023-08-06T10:12:32;6.00;;;4.20;;
10825;SDS011;5466;55.898;14.094;2023-08-06T10:14:36;5.13;;;4.07;;
10825;SDS011;5466;55.898;14.094;2023-08-06T10:16:39;8.52;;;4.20;;
10825;SDS011;5466;55.898;14.094;2023-08-06T10:18:42;6.60;;;4.50;;
10825;SDS011;5466;55.898;14.094;2023-08-06T10:20:43;10.05;;;4.55;;
10825;SDS011;5466;55.898;14.094;2023-08-06T10:22:44;8.77;;;4.10;;
10825;SDS011;5466;55.898;14.094;2023-08-06T10:24:52;10.63;;;4.90;;
10825;SDS011;5466;55.898;14.094;2023-08-06T10:26:56;5.40;;;3.95;;
10825;SDS011;5466;55.898;14.094;2023-08-06T10:28:58;5.90;;;4.05;;
10825;SDS011;5466;55.898;14.094;2023-08-06T10:30:59;6.78;;;4.95;;
10825;SDS011;5466;55.898;14.094;2023-08-06T10:33:00;5.50;;;4.15;;
10825;SDS011;5466;55.898;14.094;2023-08-06T10:35:04;6.05;;;3.90;;
10825;SDS011;5466;55.898;14.094;2023-08-06T10:37:04;6.43;;;4.25;;
10825;SDS011;5466;55.898;14.094;2023-08-06T10:39:05;9.45;;;4.82;;
10825;SDS011;5466;55.898;14.094;2023-08-06T10:41:06;7.60;;;4.25;;
10825;SDS011;5466;55.898;14.094;2023-08-06T10:43:07;8.02;;;4.25;;
10825;SDS011;5466;55.898;14.094;2023-08-06T10:45:15;7.00;;;4.45;;
10825;SDS011;5466;55.898;14.094;2023-08-06T10:47:26;4.13;;;3.75;;
10825;SDS011;5466;55.898;14.094;2023-08-06T10:49:28;6.00;;;3.95;;
10825;SDS011;5466;55.898;14.094;2023-08-06T10:51:29;7.95;;;4.00;;
10825;SDS011;5466;55.898;14.094;2023-08-06T10:53:30;7.00;;;3.95;;
10825;SDS011;5466;55.898;14.094;2023-08-06T10:55:30;8.70;;;4.07;;
10825;SDS011;5466;55.898;14.094;2023-08-06T10:57:31;6.45;;;3.67;;
10825;SDS011;5466;55.898;14.094;2023-08-06T10:59:32;6.30;;;3.88;;
10825;SDS011;5466;55.898;14.094;2023-08-06T11:01:33;7.07;;;4.00;;
10825;SDS011;5466;55.898;14.094;2023-08-06T11:03:35;6.63;;;4.07;;
10825;SDS011;5466;55.898;14.094;2023-08-06T11:05:37;6.38;;;4.20;;
10825;SDS011;5466;55.898;14.094;2023-08-06T11:07:37;5.35;;;3.58;;
10825;SDS011;5466;55.898;14.094;2023-08-06T11:09:39;6.18;;;3.95;;
10825;SDS011;5466;55.898;14.094;2023-08-06T11:11:39;6.32;;;3.78;;
10825;SDS011;5466;55.898;14.094;2023-08-06T11:13:40;5.55;;;3.88;;
10825;SDS011;5466;55.898;14.094;2023-08-06T11:15:46;4.72;;;3.75;;
10825;SDS011;5466;55.898;14.094;2023-08-06T11:17:47;7.10;;;4.00;;
10825;SDS011;5466;55.898;14.094;2023-08-06T11:19:47;4.68;;;3.67;;
10825;SDS011;5466;55.898;14.094;2023-08-06T11:21:49;11.48;;;4.03;;
10825;SDS011;5466;55.898;14.094;2023-08-06T11:23:51;6.97;;;4.18;;
10825;SDS011;5466;55.898;14.094;2023-08-06T11:25:53;5.50;;;3.83;;
10825;SDS011;5466;55.898;14.094;2023-08-06T11:27:53;6.88;;;3.92;;
10825;SDS011;5466;55.898;14.094;2023-08-06T11:29:54;7.78;;;4.47;;
10825;SDS011;5466;55.898;14.094;2023-08-06T11:32:02;6.88;;;3.75;;
10825;SDS011;5466;55.898;14.094;2023-08-06T11:34:04;7.28;;;4.88;;
10825;SDS011;5466;55.898;14.094;2023-08-06T11:36:04;6.88;;;4.88;;
10825;SDS011;5466;55.898;14.094;2023-08-06T11:38:05;6.15;;;4.40;;
10825;SDS011;5466;55.898;14.094;2023-08-06T11:40:08;6.60;;;4.25;;
10825;SDS011;5466;55.898;14.094;2023-08-06T11:42:11;8.82;;;4.57;;
10825;SDS011;5466;55.898;14.094;2023-08-06T11:44:12;8.98;;;4.25;;
10825;SDS011;5466;55.898;14.094;2023-08-06T11:46:13;11.65;;;4.57;;
10825;SDS011;5466;55.898;14.094;2023-08-06T11:48:14;4.68;;;4.13;;
10825;SDS011;5466;55.898;14.094;2023-08-06T11:50:21;4.38;;;3.97;;
10825;SDS011;5466;55.898;14.094;2023-08-06T11:52:25;4.80;;;3.60;;
10825;SDS011;5466;55.898;14.094;2023-08-06T11:54:32;7.10;;;3.78;;
10825;SDS011;5466;55.898;14.094;2023-08-06T11:56:37;4.45;;;4.03;;
10825;SDS011;5466;55.898;14.094;2023-08-06T11:58:37;5.82;;;3.72;;
10825;SDS011;5466;55.898;14.094;2023-08-06T12:00:42;6.22;;;3.72;;
10825;SDS011;5466;55.898;14.094;2023-08-06T12:02:43;4.75;;;4.05;;
10825;SDS011;5466;55.898;14.094;2023-08-06T12:05:00;5.60;;;4.13;;
10825;SDS011;5466;55.898;14.094;2023-08-06T12:07:10;8.07;;;3.85;;
10825;SDS011;5466;55.898;14.094;2023-08-06T12:09:10;7.03;;;4.30;;
10825;SDS011;5466;55.898;14.094;2023-08-06T12:11:11;6.25;;;4.10;;
10825;SDS011;5466;55.898;14.094;2023-08-06T12:13:11;4.25;;;3.65;;
10825;SDS011;5466;55.898;14.094;2023-08-06T12:15:13;6.50;;;4.22;;
10825;SDS011;5466;55.898;14.094;2023-08-06T12:17:14;5.88;;;3.95;;